sensor_id;sensor_type;location;lat;lon;timestamp;P1;durP1;ratioP1;P2;durP2;ratioP2
2434;SDS011;1228;51.022;6.764;2023-06-04T00:01:49;5.37;;;4.87;;
2434;SDS011;1228;51.022;6.764;2023-06-04T00:04:15;4.87;;;4.57;;
2434;SDS011;1228;51.022;6.764;2023-06-04T00:06:41;5.20;;;4.90;;
2434;SDS011;1228;51.022;6.764;2023-06-04T00:09:06;5.13;;;4.83;;
2434;SDS011;1228;51.022;6.764;2023-06-04T00:11:32;5.03;;;4.83;;
2434;SDS011;1228;51.022;6.764;2023-06-04T00:13:58;4.60;;;4.40;;
2434;SDS011;1228;51.022;6.764;2023-06-04T00:16:25;4.47;;;4.20;;
2434;SDS011;1228;51.022;6.764;2023-06-04T00:18:50;4.10;;;3.90;;
2434;SDS011;1228;51.022;6.764;2023-06-04T00:21:16;4.33;;;4.13;;
2434;SDS011;1228;51.022;6.764;2023-06-04T00:23:41;4.20;;;4.00;;
2434;SDS011;1228;51.022;6.764;2023-06-04T00:26:07;4.57;;;4.37;;
2434;SDS011;1228;51.022;6.764;2023-06-04T00:28:33;4.80;;;4.40;;
2434;SDS011;1228;51.022;6.764;2023-06-04T00:30:58;4.73;;;4.43;;
2434;SDS011;1228;51.022;6.764;2023-06-04T00:33:24;4.80;;;4.60;;
2434;SDS011;1228;51.022;6.764;2023-06-04T00:35:50;4.93;;;4.53;;
2434;SDS011;1228;51.022;6.764;2023-06-04T00:38:15;5.60;;;5.30;;
2434;SDS011;1228;51.022;6.764;2023-06-04T00:40:41;5.67;;;5.00;;
2434;SDS011;1228;51.022;6.764;2023-06-04T00:43:06;4.50;;;4.20;;
2434;SDS011;1228;51.022;6.764;2023-06-04T00:45:33;5.53;;;5.23;;
2434;SDS011;1228;51.022;6.764;2023-06-04T00:47:59;5.00;;;4.60;;
2434;SDS011;1228;51.022;6.764;2023-06-04T00:50:25;5.10;;;4.50;;
2434;SDS011;1228;51.022;6.764;2023-06-04T00:52:51;4.60;;;4.30;;
2434;SDS011;1228;51.022;6.764;2023-06-04T00:55:17;4.80;;;4.50;;
2434;SDS011;1228;51.022;6.764;2023-06-04T00:57:46;4.30;;;4.10;;
2434;SDS011;1228;51.022;6.764;2023-06-04T01:00:11;4.80;;;4.50;;
2434;SDS011;1228;51.022;6.764;2023-06-04T01:02:38;4.50;;;4.30;;
2434;SDS011;1228;51.022;6.764;2023-06-04T01:05:24;4.90;;;4.50;;
2434;SDS011;1228;51.022;6.764;2023-06-04T01:07:55;5.00;;;4.60;;
2434;SDS011;1228;51.022;6.764;2023-06-04T01:10:22;6.97;;;4.53;;
2434;SDS011;1228;51.022;6.764;2023-06-04T01:12:48;4.43;;;4.13;;
2434;SDS011;1228;51.022;6.764;2023-06-04T01:15:13;4.77;;;4.47;;
2434;SDS011;1228;51.022;6.764;2023-06-04T01:17:40;4.53;;;4.13;;
2434;SDS011;1228;51.022;6.764;2023-06-04T01:20:16;4.60;;;4.40;;
2434;SDS011;1228;51.022;6.764;2023-06-04T01:26:08;5.23;;;4.93;;
2434;SDS011;1228;51.022;6.764;2023-06-04T01:28:35;5.13;;;4.77;;
2434;SDS011;1228;51.022;6.764;2023-06-04T01:31:02;5.40;;;5.10;;
2434;SDS011;1228;51.022;6.764;2023-06-04T01:33:29;5.87;;;5.37;;
2434;SDS011;1228;51.022;6.764;2023-06-04T01:35:54;5.17;;;4.87;;
2434;SDS011;1228;51.022;6.764;2023-06-04T01:38:20;5.80;;;5.50;;
2434;SDS011;1228;51.022;6.764;2023-06-04T01:40:46;6.07;;;5.77;;
2434;SDS011;1228;51.022;6.764;2023-06-04T01:43:12;6.87;;;6.47;;
2434;SDS011;1228;51.022;6.764;2023-06-04T01:45:38;6.07;;;5.77;;
2434;SDS011;1228;51.022;6.764;2023-06-04T01:48:04;6.97;;;6.57;;
2434;SDS011;1228;51.022;6.764;2023-06-04T01:50:30;6.20;;;5.80;;
2434;SDS011;1228;51.022;6.764;2023-06-04T01:52:56;6.03;;;5.63;;
2434;SDS011;1228;51.022;6.764;2023-06-04T01:55:22;7.40;;;7.00;;
2434;SDS011;1228;51.022;6.764;2023-06-04T01:57:50;7.50;;;6.93;;
2434;SDS011;1228;51.022;6.764;2023-06-04T02:00:15;6.07;;;5.77;;
2434;SDS011;1228;51.022;6.764;2023-06-04T02:02:43;6.80;;;6.40;;
2434;SDS011;1228;51.022;6.764;2023-06-04T02:05:13;5.57;;;5.27;;
2434;SDS011;1228;51.022;6.764;2023-06-04T02:07:40;6.20;;;5.80;;
2434;SDS011;1228;51.022;6.764;2023-06-04T02:10:14;6.00;;;5.70;;
2434;SDS011;1228;51.022;6.764;2023-06-04T02:12:41;5.73;;;5.43;;
2434;SDS011;1228;51.022;6.764;2023-06-04T02:15:22;5.07;;;4.47;;
2434;SDS011;1228;51.022;6.764;2023-06-04T02:17:48;4.80;;;4.50;;
2434;SDS011;1228;51.022;6.764;2023-06-04T02:20:15;4.67;;;4.43;;
2434;SDS011;1228;51.022;6.764;2023-06-04T02:22:41;4.90;;;4.60;;
2434;SDS011;1228;51.022;6.764;2023-06-04T02:25:07;5.40;;;5.10;;
2434;SDS011;1228;51.022;6.764;2023-06-04T02:27:36;5.23;;;4.83;;
2434;SDS011;1228;51.022;6.764;2023-06-04T02:30:03;5.63;;;5.23;;
2434;SDS011;1228;51.022;6.764;2023-06-04T02:32:30;5.27;;;4.87;;
2434;SDS011;1228;51.022;6.764;2023-06-04T02:34:56;5.27;;;4.87;;
2434;SDS011;1228;51.022;6.764;2023-06-04T02:37:21;5.43;;;5.03;;
2434;SDS011;1228;51.022;6.764;2023-06-04T02:39:47;7.83;;;7.43;;
2434;SDS011;1228;51.022;6.764;2023-06-04T02:42:13;7.23;;;6.90;;
2434;SDS011;1228;51.022;6.764;2023-06-04T02:44:38;6.77;;;6.37;;
2434;SDS011;1228;51.022;6.764;2023-06-04T02:47:04;6.67;;;6.17;;
2434;SDS011;1228;51.022;6.764;2023-06-04T02:49:30;7.00;;;6.57;;
2434;SDS011;1228;51.022;6.764;2023-06-04T02:51:56;6.53;;;6.20;;
2434;SDS011;1228;51.022;6.764;2023-06-04T02:54:21;7.80;;;7.40;;
2434;SDS011;1228;51.022;6.764;2023-06-04T02:56:47;6.67;;;6.27;;
2434;SDS011;1228;51.022;6.764;2023-06-04T02:59:14;6.10;;;5.70;;
2434;SDS011;1228;51.022;6.764;2023-06-04T03:01:39;5.63;;;5.33;;
2434;SDS011;1228;51.022;6.764;2023-06-04T03:04:05;5.10;;;4.80;;
2434;SDS011;1228;51.022;6.764;2023-06-04T03:06:35;4.67;;;4.37;;
2434;SDS011;1228;51.022;6.764;2023-06-04T03:09:03;5.13;;;4.90;;
2434;SDS011;1228;51.022;6.764;2023-06-04T03:11:28;6.57;;;6.07;;
2434;SDS011;1228;51.022;6.764;2023-06-04T03:13:54;6.53;;;6.23;;
2434;SDS011;1228;51.022;6.764;2023-06-04T03:16:20;5.87;;;5.57;;
2434;SDS011;1228;51.022;6.764;2023-06-04T03:18:46;4.67;;;4.47;;
2434;SDS011;1228;51.022;6.764;2023-06-04T03:21:12;5.80;;;5.40;;
2434;SDS011;1228;51.022;6.764;2023-06-04T03:23:38;6.10;;;5.80;;
2434;SDS011;1228;51.022;6.764;2023-06-04T03:26:04;5.93;;;5.50;;
2434;SDS011;1228;51.022;6.764;2023-06-04T03:28:31;4.60;;;4.30;;
2434;SDS011;1228;51.022;6.764;2023-06-04T03:30:58;4.40;;;4.20;;
2434;SDS011;1228;51.022;6.764;2023-06-04T03:33:24;5.00;;;4.60;;
2434;SDS011;1228;51.022;6.764;2023-06-04T03:35:50;4.47;;;4.17;;
2434;SDS011;1228;51.022;6.764;2023-06-04T03:38:17;4.70;;;4.37;;
2434;SDS011;1228;51.022;6.764;2023-06-04T03:40:43;4.30;;;4.10;;
2434;SDS011;1228;51.022;6.764;2023-06-04T03:43:10;4.70;;;4.40;;
2434;SDS011;1228;51.022;6.764;2023-06-04T03:45:36;5.20;;;4.80;;
2434;SDS011;1228;51.022;6.764;2023-06-04T03:48:01;4.40;;;4.20;;
2434;SDS011;1228;51.022;6.764;2023-06-04T03:50:27;5.10;;;4.60;;
2434;SDS011;1228;51.022;6.764;2023-06-04T03:52:53;4.87;;;4.50;;
2434;SDS011;1228;51.022;6.764;2023-06-04T03:55:19;4.80;;;4.50;;
2434;SDS011;1228;51.022;6.764;2023-06-04T03:57:44;4.40;;;4.10;;
2434;SDS011;1228;51.022;6.764;2023-06-04T04:00:10;4.53;;;4.33;;
2434;SDS011;1228;51.022;6.764;2023-06-04T04:02:40;5.03;;;4.73;;
2434;SDS011;1228;51.022;6.764;2023-06-04T04:05:07;5.63;;;4.97;;
2434;SDS011;1228;51.022;6.764;2023-06-04T04:07:34;5.33;;;4.93;;
2434;SDS011;1228;51.022;6.764;2023-06-04T04:10:00;4.83;;;4.53;;
2434;SDS011;1228;51.022;6.764;2023-06-04T04:12:25;5.30;;;4.90;;
2434;SDS011;1228;51.022;6.764;2023-06-04T04:14:51;4.83;;;4.53;;
2434;SDS011;1228;51.022;6.764;2023-06-04T04:17:17;4.80;;;4.50;;
2434;SDS011;1228;51.022;6.764;2023-06-04T04:19:42;4.73;;;4.43;;
2434;SDS011;1228;51.022;6.764;2023-06-04T04:22:10;4.83;;;4.53;;
2434;SDS011;1228;51.022;6.764;2023-06-04T04:24:36;4.90;;;4.60;;
2434;SDS011;1228;51.022;6.764;2023-06-04T04:27:02;4.80;;;4.50;;
2434;SDS011;1228;51.022;6.764;2023-06-04T04:29:29;4.80;;;4.40;;
2434;SDS011;1228;51.022;6.764;2023-06-04T04:31:57;4.80;;;4.50;;
2434;SDS011;1228;51.022;6.764;2023-06-04T04:34:25;5.03;;;4.53;;
2434;SDS011;1228;51.022;6.764;2023-06-04T04:36:51;5.13;;;4.73;;
2434;SDS011;1228;51.022;6.764;2023-06-04T04:39:26;4.77;;;4.37;;
2434;SDS011;1228;51.022;6.764;2023-06-04T04:41:53;4.70;;;4.30;;
2434;SDS011;1228;51.022;6.764;2023-06-04T04:44:19;4.87;;;4.57;;
2434;SDS011;1228;51.022;6.764;2023-06-04T04:46:45;4.80;;;4.50;;
2434;SDS011;1228;51.022;6.764;2023-06-04T04:49:13;5.27;;;4.97;;
2434;SDS011;1228;51.022;6.764;2023-06-04T04:51:38;4.80;;;4.50;;
2434;SDS011;1228;51.022;6.764;2023-06-04T04:54:04;4.80;;;4.20;;
2434;SDS011;1228;51.022;6.764;2023-06-04T04:56:32;4.70;;;4.33;;
2434;SDS011;1228;51.022;6.764;2023-06-04T04:59:00;5.00;;;4.60;;
2434;SDS011;1228;51.022;6.764;2023-06-04T05:01:25;5.40;;;4.47;;
2434;SDS011;1228;51.022;6.764;2023-06-04T05:03:51;4.67;;;4.37;;
2434;SDS011;1228;51.022;6.764;2023-06-04T05:06:17;4.50;;;4.20;;
2434;SDS011;1228;51.022;6.764;2023-06-04T05:08:42;6.17;;;4.30;;
2434;SDS011;1228;51.022;6.764;2023-06-04T05:11:08;4.67;;;4.27;;
2434;SDS011;1228;51.022;6.764;2023-06-04T05:13:34;4.47;;;4.03;;
2434;SDS011;1228;51.022;6.764;2023-06-04T05:15:59;4.77;;;4.20;;
2434;SDS011;1228;51.022;6.764;2023-06-04T05:18:32;4.73;;;4.33;;
2434;SDS011;1228;51.022;6.764;2023-06-04T05:21:06;5.03;;;4.63;;
2434;SDS011;1228;51.022;6.764;2023-06-04T05:23:33;5.33;;;4.83;;
2434;SDS011;1228;51.022;6.764;2023-06-04T05:26:02;4.57;;;4.27;;
2434;SDS011;1228;51.022;6.764;2023-06-04T05:28:28;4.53;;;4.10;;
2434;SDS011;1228;51.022;6.764;2023-06-04T05:30:54;4.47;;;4.07;;
2434;SDS011;1228;51.022;6.764;2023-06-04T05:33:25;4.40;;;4.10;;
2434;SDS011;1228;51.022;6.764;2023-06-04T05:35:51;4.30;;;4.00;;
2434;SDS011;1228;51.022;6.764;2023-06-04T05:38:22;5.10;;;4.20;;
2434;SDS011;1228;51.022;6.764;2023-06-04T05:40:50;4.70;;;4.30;;
2434;SDS011;1228;51.022;6.764;2023-06-04T05:43:17;5.53;;;4.97;;
2434;SDS011;1228;51.022;6.764;2023-06-04T05:45:42;4.10;;;3.80;;
2434;SDS011;1228;51.022;6.764;2023-06-04T05:48:08;4.00;;;3.70;;
2434;SDS011;1228;51.022;6.764;2023-06-04T05:50:34;4.28;;;3.97;;
2434;SDS011;1228;51.022;6.764;2023-06-04T05:52:59;4.35;;;4.03;;
2434;SDS011;1228;51.022;6.764;2023-06-04T05:55:25;3.83;;;3.63;;
2434;SDS011;1228;51.022;6.764;2023-06-04T05:57:53;4.95;;;4.60;;
2434;SDS011;1228;51.022;6.764;2023-06-04T06:00:19;5.82;;;5.43;;
2434;SDS011;1228;51.022;6.764;2023-06-04T06:02:45;5.13;;;4.78;;
2434;SDS011;1228;51.022;6.764;2023-06-04T06:05:14;3.83;;;3.53;;
2434;SDS011;1228;51.022;6.764;2023-06-04T06:07:41;4.32;;;3.95;;
2434;SDS011;1228;51.022;6.764;2023-06-04T06:10:07;3.90;;;3.60;;
2434;SDS011;1228;51.022;6.764;2023-06-04T06:12:33;4.40;;;4.10;;
2434;SDS011;1228;51.022;6.764;2023-06-04T06:14:59;4.93;;;4.63;;
2434;SDS011;1228;51.022;6.764;2023-06-04T06:17:24;4.10;;;3.80;;
2434;SDS011;1228;51.022;6.764;2023-06-04T06:19:51;5.18;;;4.78;;
2434;SDS011;1228;51.022;6.764;2023-06-04T06:22:17;4.75;;;4.43;;
2434;SDS011;1228;51.022;6.764;2023-06-04T06:24:42;4.40;;;4.00;;
2434;SDS011;1228;51.022;6.764;2023-06-04T06:27:08;3.78;;;3.47;;
2434;SDS011;1228;51.022;6.764;2023-06-04T06:29:35;3.90;;;3.60;;
2434;SDS011;1228;51.022;6.764;2023-06-04T06:32:01;3.60;;;3.30;;
2434;SDS011;1228;51.022;6.764;2023-06-04T06:34:27;5.85;;;3.38;;
2434;SDS011;1228;51.022;6.764;2023-06-04T06:36:53;3.47;;;3.17;;
2434;SDS011;1228;51.022;6.764;2023-06-04T06:39:18;3.65;;;3.35;;
2434;SDS011;1228;51.022;6.764;2023-06-04T06:41:45;3.63;;;3.30;;
2434;SDS011;1228;51.022;6.764;2023-06-04T06:44:10;4.30;;;3.90;;
2434;SDS011;1228;51.022;6.764;2023-06-04T06:46:36;4.20;;;3.85;;
2434;SDS011;1228;51.022;6.764;2023-06-04T06:49:02;3.30;;;3.10;;
2434;SDS011;1228;51.022;6.764;2023-06-04T06:51:27;3.60;;;3.30;;
2434;SDS011;1228;51.022;6.764;2023-06-04T06:53:53;4.75;;;3.42;;
2434;SDS011;1228;51.022;6.764;2023-06-04T06:56:18;4.80;;;3.00;;
2434;SDS011;1228;51.022;6.764;2023-06-04T06:58:44;3.97;;;3.65;;
2434;SDS011;1228;51.022;6.764;2023-06-04T07:01:10;5.03;;;3.72;;
2434;SDS011;1228;51.022;6.764;2023-06-04T07:03:37;3.30;;;3.05;;
2434;SDS011;1228;51.022;6.764;2023-06-04T07:06:04;6.70;;;3.47;;
2434;SDS011;1228;51.022;6.764;2023-06-04T07:08:30;3.72;;;3.35;;
2434;SDS011;1228;51.022;6.764;2023-06-04T07:10:56;3.55;;;3.35;;
2434;SDS011;1228;51.022;6.764;2023-06-04T07:13:22;5.45;;;4.95;;
2434;SDS011;1228;51.022;6.764;2023-06-04T07:15:49;5.30;;;4.32;;
2434;SDS011;1228;51.022;6.764;2023-06-04T07:18:15;5.22;;;4.90;;
2434;SDS011;1228;51.022;6.764;2023-06-04T07:20:40;3.85;;;3.38;;
2434;SDS011;1228;51.022;6.764;2023-06-04T07:23:06;3.15;;;2.95;;
2434;SDS011;1228;51.022;6.764;2023-06-04T07:25:32;3.15;;;2.95;;
2434;SDS011;1228;51.022;6.764;2023-06-04T07:27:58;3.03;;;2.83;;
2434;SDS011;1228;51.022;6.764;2023-06-04T07:30:26;2.78;;;2.53;;
2434;SDS011;1228;51.022;6.764;2023-06-04T07:32:52;3.80;;;3.03;;
2434;SDS011;1228;51.022;6.764;2023-06-04T07:35:17;3.42;;;3.10;;
2434;SDS011;1228;51.022;6.764;2023-06-04T07:37:43;3.22;;;2.92;;
2434;SDS011;1228;51.022;6.764;2023-06-04T07:40:14;3.58;;;3.28;;
2434;SDS011;1228;51.022;6.764;2023-06-04T07:42:40;3.05;;;2.85;;
2434;SDS011;1228;51.022;6.764;2023-06-04T07:45:07;3.13;;;2.92;;
2434;SDS011;1228;51.022;6.764;2023-06-04T07:47:35;3.22;;;3.03;;
2434;SDS011;1228;51.022;6.764;2023-06-04T07:50:00;4.88;;;2.95;;
2434;SDS011;1228;51.022;6.764;2023-06-04T07:52:26;4.32;;;3.00;;
2434;SDS011;1228;51.022;6.764;2023-06-04T07:54:52;5.03;;;4.63;;
2434;SDS011;1228;51.022;6.764;2023-06-04T07:57:17;3.58;;;2.88;;
2434;SDS011;1228;51.022;6.764;2023-06-04T07:59:43;3.17;;;2.97;;
2434;SDS011;1228;51.022;6.764;2023-06-04T08:02:08;3.50;;;3.20;;
2434;SDS011;1228;51.022;6.764;2023-06-04T08:04:34;2.88;;;2.67;;
2434;SDS011;1228;51.022;6.764;2023-06-04T08:07:00;5.43;;;3.22;;
2434;SDS011;1228;51.022;6.764;2023-06-04T08:09:26;3.08;;;2.80;;
2434;SDS011;1228;51.022;6.764;2023-06-04T08:11:51;3.33;;;2.78;;
2434;SDS011;1228;51.022;6.764;2023-06-04T08:14:17;3.30;;;2.60;;
2434;SDS011;1228;51.022;6.764;2023-06-04T08:16:43;2.90;;;2.70;;
2434;SDS011;1228;51.022;6.764;2023-06-04T08:19:09;3.28;;;3.08;;
2434;SDS011;1228;51.022;6.764;2023-06-04T08:21:35;5.75;;;3.40;;
2434;SDS011;1228;51.022;6.764;2023-06-04T08:24:00;3.25;;;3.05;;
2434;SDS011;1228;51.022;6.764;2023-06-04T08:26:27;4.07;;;3.65;;
2434;SDS011;1228;51.022;6.764;2023-06-04T08:28:52;4.32;;;4.03;;
2434;SDS011;1228;51.022;6.764;2023-06-04T08:31:18;2.85;;;2.63;;
2434;SDS011;1228;51.022;6.764;2023-06-04T08:33:46;4.60;;;4.20;;
2434;SDS011;1228;51.022;6.764;2023-06-04T08:36:12;3.88;;;3.60;;
2434;SDS011;1228;51.022;6.764;2023-06-04T08:38:38;3.17;;;2.95;;
2434;SDS011;1228;51.022;6.764;2023-06-04T08:43:59;3.88;;;2.83;;
2434;SDS011;1228;51.022;6.764;2023-06-04T08:46:26;3.10;;;2.80;;
2434;SDS011;1228;51.022;6.764;2023-06-04T08:48:54;3.03;;;2.72;;
2434;SDS011;1228;51.022;6.764;2023-06-04T08:51:25;3.80;;;3.47;;
2434;SDS011;1228;51.022;6.764;2023-06-04T08:53:51;3.47;;;2.85;;
2434;SDS011;1228;51.022;6.764;2023-06-04T08:56:19;3.22;;;2.92;;
2434;SDS011;1228;51.022;6.764;2023-06-04T08:58:47;3.45;;;2.70;;
2434;SDS011;1228;51.022;6.764;2023-06-04T09:01:13;4.72;;;2.60;;
2434;SDS011;1228;51.022;6.764;2023-06-04T09:03:39;3.13;;;2.92;;
2434;SDS011;1228;51.022;6.764;2023-06-04T09:06:06;2.83;;;2.60;;
2434;SDS011;1228;51.022;6.764;2023-06-04T09:08:34;3.10;;;2.80;;
2434;SDS011;1228;51.022;6.764;2023-06-04T09:11:05;4.20;;;2.83;;
2434;SDS011;1228;51.022;6.764;2023-06-04T09:13:32;2.88;;;2.67;;
2434;SDS011;1228;51.022;6.764;2023-06-04T09:16:02;3.00;;;2.75;;
2434;SDS011;1228;51.022;6.764;2023-06-04T09:18:29;2.65;;;2.45;;
2434;SDS011;1228;51.022;6.764;2023-06-04T09:21:05;2.80;;;2.60;;
2434;SDS011;1228;51.022;6.764;2023-06-04T09:26:08;3.38;;;2.72;;
2434;SDS011;1228;51.022;6.764;2023-06-04T09:28:35;3.08;;;2.78;;
2434;SDS011;1228;51.022;6.764;2023-06-04T09:31:07;3.33;;;3.03;;
2434;SDS011;1228;51.022;6.764;2023-06-04T09:33:45;2.88;;;2.65;;
2434;SDS011;1228;51.022;6.764;2023-06-04T09:36:12;4.20;;;3.30;;
2434;SDS011;1228;51.022;6.764;2023-06-04T09:38:38;3.05;;;2.85;;
2434;SDS011;1228;51.022;6.764;2023-06-04T09:41:04;2.75;;;2.50;;
2434;SDS011;1228;51.022;6.764;2023-06-04T09:43:39;3.60;;;2.72;;
2434;SDS011;1228;51.022;6.764;2023-06-04T09:46:10;2.70;;;2.50;;
2434;SDS011;1228;51.022;6.764;2023-06-04T09:48:40;3.05;;;2.50;;
2434;SDS011;1228;51.022;6.764;2023-06-04T09:51:07;4.57;;;3.70;;
2434;SDS011;1228;51.022;6.764;2023-06-04T09:53:34;2.60;;;2.40;;
2434;SDS011;1228;51.022;6.764;2023-06-04T09:56:00;3.83;;;2.28;;
2434;SDS011;1228;51.022;6.764;2023-06-04T09:58:28;2.58;;;2.38;;
2434;SDS011;1228;51.022;6.764;2023-06-04T10:00:55;2.53;;;2.38;;
2434;SDS011;1228;51.022;6.764;2023-06-04T10:03:25;3.08;;;2.78;;
2434;SDS011;1228;51.022;6.764;2023-06-04T10:05:56;2.53;;;2.42;;
2434;SDS011;1228;51.022;6.764;2023-06-04T10:08:22;3.30;;;3.03;;
2434;SDS011;1228;51.022;6.764;2023-06-04T10:10:50;3.15;;;2.83;;
2434;SDS011;1228;51.022;6.764;2023-06-04T10:13:18;3.55;;;3.35;;
2434;SDS011;1228;51.022;6.764;2023-06-04T10:15:44;4.00;;;2.80;;
2434;SDS011;1228;51.022;6.764;2023-06-04T10:18:11;3.40;;;2.80;;
2434;SDS011;1228;51.022;6.764;2023-06-04T10:20:40;2.85;;;2.65;;
2434;SDS011;1228;51.022;6.764;2023-06-04T10:23:06;2.97;;;2.78;;
2434;SDS011;1228;51.022;6.764;2023-06-04T10:25:33;3.28;;;3.08;;
2434;SDS011;1228;51.022;6.764;2023-06-04T10:28:00;3.42;;;3.22;;
2434;SDS011;1228;51.022;6.764;2023-06-04T10:30:26;3.40;;;3.20;;
2434;SDS011;1228;51.022;6.764;2023-06-04T10:32:52;4.05;;;2.75;;
2434;SDS011;1228;51.022;6.764;2023-06-04T10:35:28;2.75;;;2.53;;
2434;SDS011;1228;51.022;6.764;2023-06-04T10:38:04;5.95;;;3.15;;
2434;SDS011;1228;51.022;6.764;2023-06-04T10:40:38;2.88;;;2.67;;
2434;SDS011;1228;51.022;6.764;2023-06-04T10:43:08;3.35;;;3.05;;
2434;SDS011;1228;51.022;6.764;2023-06-04T10:45:35;3.35;;;3.15;;
2434;SDS011;1228;51.022;6.764;2023-06-04T10:48:01;3.22;;;2.97;;
2434;SDS011;1228;51.022;6.764;2023-06-04T10:50:28;3.00;;;2.80;;
2434;SDS011;1228;51.022;6.764;2023-06-04T10:52:54;3.92;;;3.00;;
2434;SDS011;1228;51.022;6.764;2023-06-04T10:55:23;3.95;;;2.58;;
2434;SDS011;1228;51.022;6.764;2023-06-04T10:57:52;3.28;;;2.70;;
2434;SDS011;1228;51.022;6.764;2023-06-04T11:00:22;3.05;;;2.75;;
2434;SDS011;1228;51.022;6.764;2023-06-04T11:02:59;3.00;;;2.70;;
2434;SDS011;1228;51.022;6.764;2023-06-04T11:05:35;3.22;;;2.75;;
2434;SDS011;1228;51.022;6.764;2023-06-04T11:08:02;3.10;;;2.90;;
2434;SDS011;1228;51.022;6.764;2023-06-04T11:10:36;2.72;;;2.53;;
2434;SDS011;1228;51.022;6.764;2023-06-04T11:13:03;3.72;;;3.53;;
2434;SDS011;1228;51.022;6.764;2023-06-04T11:18:12;4.65;;;3.13;;
2434;SDS011;1228;51.022;6.764;2023-06-04T11:20:43;3.55;;;3.35;;
2434;SDS011;1228;51.022;6.764;2023-06-04T11:23:11;3.75;;;3.17;;
2434;SDS011;1228;51.022;6.764;2023-06-04T11:25:38;2.72;;;2.53;;
2434;SDS011;1228;51.022;6.764;2023-06-04T11:28:03;4.78;;;2.85;;
2434;SDS011;1228;51.022;6.764;2023-06-04T11:30:29;2.95;;;2.70;;
2434;SDS011;1228;51.022;6.764;2023-06-04T11:33:03;4.40;;;2.38;;
2434;SDS011;1228;51.022;6.764;2023-06-04T11:35:30;2.50;;;2.30;;
2434;SDS011;1228;51.022;6.764;2023-06-04T11:38:04;3.00;;;2.80;;
2434;SDS011;1228;51.022;6.764;2023-06-04T11:40:30;2.70;;;2.50;;
2434;SDS011;1228;51.022;6.764;2023-06-04T11:42:55;2.80;;;2.60;;
2434;SDS011;1228;51.022;6.764;2023-06-04T11:45:21;2.92;;;2.72;;
2434;SDS011;1228;51.022;6.764;2023-06-04T11:47:48;2.45;;;2.25;;
2434;SDS011;1228;51.022;6.764;2023-06-04T11:50:16;2.45;;;2.25;;
2434;SDS011;1228;51.022;6.764;2023-06-04T11:52:42;4.68;;;2.78;;
2434;SDS011;1228;51.022;6.764;2023-06-04T11:55:11;2.65;;;2.30;;
2434;SDS011;1228;51.022;6.764;2023-06-04T11:57:38;2.80;;;2.60;;
2434;SDS011;1228;51.022;6.764;2023-06-04T12:00:05;2.92;;;2.63;;
2434;SDS011;1228;51.022;6.764;2023-06-04T12:02:38;2.70;;;2.45;;
2434;SDS011;1228;51.022;6.764;2023-06-04T12:05:17;2.78;;;2.58;;
2434;SDS011;1228;51.022;6.764;2023-06-04T12:07:44;2.78;;;2.58;;
2434;SDS011;1228;51.022;6.764;2023-06-04T12:10:10;3.95;;;3.20;;
2434;SDS011;1228;51.022;6.764;2023-06-04T12:12:39;5.93;;;3.28;;
2434;SDS011;1228;51.022;6.764;2023-06-04T12:15:05;3.88;;;3.58;;
2434;SDS011;1228;51.022;6.764;2023-06-04T12:17:32;2.80;;;2.60;;
2434;SDS011;1228;51.022;6.764;2023-06-04T12:19:58;3.38;;;3.08;;
2434;SDS011;1228;51.022;6.764;2023-06-04T12:22:24;2.78;;;2.58;;
2434;SDS011;1228;51.022;6.764;2023-06-04T12:24:52;2.97;;;2.67;;
2434;SDS011;1228;51.022;6.764;2023-06-04T12:27:19;3.40;;;3.20;;
2434;SDS011;1228;51.022;6.764;2023-06-04T12:29:59;3.42;;;2.50;;
2434;SDS011;1228;51.022;6.764;2023-06-04T12:32:29;2.70;;;2.50;;
2434;SDS011;1228;51.022;6.764;2023-06-04T12:34:55;2.78;;;2.58;;
2434;SDS011;1228;51.022;6.764;2023-06-04T12:37:21;5.05;;;4.65;;
2434;SDS011;1228;51.022;6.764;2023-06-04T12:39:47;3.47;;;3.17;;
2434;SDS011;1228;51.022;6.764;2023-06-04T12:42:13;3.67;;;3.33;;
2434;SDS011;1228;51.022;6.764;2023-06-04T12:44:39;4.07;;;3.45;;
2434;SDS011;1228;51.022;6.764;2023-06-04T12:47:06;4.57;;;3.75;;
2434;SDS011;1228;51.022;6.764;2023-06-04T12:49:32;5.07;;;4.03;;
2434;SDS011;1228;51.022;6.764;2023-06-04T12:51:58;3.72;;;3.42;;
2434;SDS011;1228;51.022;6.764;2023-06-04T12:54:24;2.80;;;2.60;;
2434;SDS011;1228;51.022;6.764;2023-06-04T12:56:49;3.00;;;2.47;;
2434;SDS011;1228;51.022;6.764;2023-06-04T12:59:15;3.38;;;3.17;;
2434;SDS011;1228;51.022;6.764;2023-06-04T13:01:41;3.17;;;2.97;;
2434;SDS011;1228;51.022;6.764;2023-06-04T13:04:07;3.20;;;3.00;;
2434;SDS011;1228;51.022;6.764;2023-06-04T13:06:33;3.65;;;3.22;;
2434;SDS011;1228;51.022;6.764;2023-06-04T13:09:03;4.82;;;3.50;;
2434;SDS011;1228;51.022;6.764;2023-06-04T13:11:34;3.05;;;2.85;;
2434;SDS011;1228;51.022;6.764;2023-06-04T13:14:04;3.50;;;3.20;;
2434;SDS011;1228;51.022;6.764;2023-06-04T13:16:29;3.08;;;2.85;;
2434;SDS011;1228;51.022;6.764;2023-06-04T13:18:55;3.88;;;2.78;;
2434;SDS011;1228;51.022;6.764;2023-06-04T13:21:21;3.90;;;3.50;;
2434;SDS011;1228;51.022;6.764;2023-06-04T13:23:46;3.75;;;3.45;;
2434;SDS011;1228;51.022;6.764;2023-06-04T13:26:12;4.25;;;4.05;;
2434;SDS011;1228;51.022;6.764;2023-06-04T13:28:38;4.88;;;4.38;;
2434;SDS011;1228;51.022;6.764;2023-06-04T13:31:04;3.28;;;3.05;;
2434;SDS011;1228;51.022;6.764;2023-06-04T13:33:29;4.28;;;3.83;;
2434;SDS011;1228;51.022;6.764;2023-06-04T13:35:55;3.95;;;3.65;;
2434;SDS011;1228;51.022;6.764;2023-06-04T13:38:21;3.50;;;3.20;;
2434;SDS011;1228;51.022;6.764;2023-06-04T13:40:46;3.13;;;2.92;;
2434;SDS011;1228;51.022;6.764;2023-06-04T13:43:12;3.40;;;3.20;;
2434;SDS011;1228;51.022;6.764;2023-06-04T13:45:37;3.75;;;3.40;;
2434;SDS011;1228;51.022;6.764;2023-06-04T13:48:05;3.33;;;3.13;;
2434;SDS011;1228;51.022;6.764;2023-06-04T13:50:32;3.58;;;3.30;;
2434;SDS011;1228;51.022;6.764;2023-06-04T13:52:58;4.63;;;4.15;;
2434;SDS011;1228;51.022;6.764;2023-06-04T13:55:23;5.32;;;3.05;;
2434;SDS011;1228;51.022;6.764;2023-06-04T13:57:49;4.13;;;3.17;;
2434;SDS011;1228;51.022;6.764;2023-06-04T14:00:14;3.63;;;3.33;;
2434;SDS011;1228;51.022;6.764;2023-06-04T14:02:40;3.63;;;3.05;;
2434;SDS011;1228;51.022;6.764;2023-06-04T14:05:06;4.28;;;3.30;;
2434;SDS011;1228;51.022;6.764;2023-06-04T14:07:32;3.60;;;3.33;;
2434;SDS011;1228;51.022;6.764;2023-06-04T14:09:57;3.67;;;3.28;;
2434;SDS011;1228;51.022;6.764;2023-06-04T14:12:23;5.22;;;3.13;;
2434;SDS011;1228;51.022;6.764;2023-06-04T14:14:49;3.42;;;3.10;;
2434;SDS011;1228;51.022;6.764;2023-06-04T14:17:15;4.63;;;3.10;;
2434;SDS011;1228;51.022;6.764;2023-06-04T14:19:41;3.35;;;3.13;;
2434;SDS011;1228;51.022;6.764;2023-06-04T14:22:07;3.47;;;3.17;;
2434;SDS011;1228;51.022;6.764;2023-06-04T14:24:33;3.38;;;3.17;;
2434;SDS011;1228;51.022;6.764;2023-06-04T14:26:58;4.60;;;3.20;;
2434;SDS011;1228;51.022;6.764;2023-06-04T14:29:24;4.05;;;3.83;;
2434;SDS011;1228;51.022;6.764;2023-06-04T14:31:50;4.85;;;3.70;;
2434;SDS011;1228;51.022;6.764;2023-06-04T14:34:15;4.22;;;3.17;;
2434;SDS011;1228;51.022;6.764;2023-06-04T14:36:41;4.10;;;3.80;;
2434;SDS011;1228;51.022;6.764;2023-06-04T14:39:06;3.55;;;3.35;;
2434;SDS011;1228;51.022;6.764;2023-06-04T14:41:32;3.78;;;3.47;;
2434;SDS011;1228;51.022;6.764;2023-06-04T14:43:58;6.35;;;3.50;;
2434;SDS011;1228;51.022;6.764;2023-06-04T14:46:24;3.45;;;3.22;;
2434;SDS011;1228;51.022;6.764;2023-06-04T14:48:50;3.33;;;3.13;;
2434;SDS011;1228;51.022;6.764;2023-06-04T14:51:15;5.10;;;4.65;;
2434;SDS011;1228;51.022;6.764;2023-06-04T14:53:41;4.30;;;3.50;;
2434;SDS011;1228;51.022;6.764;2023-06-04T14:56:07;3.95;;;3.50;;
2434;SDS011;1228;51.022;6.764;2023-06-04T14:58:32;6.45;;;3.42;;
2434;SDS011;1228;51.022;6.764;2023-06-04T15:00:59;10.35;;;3.40;;
2434;SDS011;1228;51.022;6.764;2023-06-04T15:03:28;3.30;;;3.00;;
2434;SDS011;1228;51.022;6.764;2023-06-04T15:05:53;3.22;;;3.03;;
2434;SDS011;1228;51.022;6.764;2023-06-04T15:08:19;2.92;;;2.72;;
2434;SDS011;1228;51.022;6.764;2023-06-04T15:10:45;4.40;;;4.00;;
2434;SDS011;1228;51.022;6.764;2023-06-04T15:13:11;4.53;;;4.20;;
2434;SDS011;1228;51.022;6.764;2023-06-04T15:15:36;4.05;;;3.67;;
2434;SDS011;1228;51.022;6.764;2023-06-04T15:18:02;3.65;;;3.35;;
2434;SDS011;1228;51.022;6.764;2023-06-04T15:20:27;3.53;;;3.22;;
2434;SDS011;1228;51.022;6.764;2023-06-04T15:22:53;3.45;;;3.25;;
2434;SDS011;1228;51.022;6.764;2023-06-04T15:25:19;3.80;;;3.50;;